Laoag, Philippines
Current Conditions -  °F | °C
As of 11:00 AM on Wednesday 22 Oct 2014 (Local Time) from RPLI Reporting Station
Few Clouds Few Clouds  
Wind Chill: 88°   Ceiling: Unl
Heat Index: 102°   Visibility: 6mi
Dew Point: 79°   Wind: 5mph
Humidity: 75%   Direction: 270°W
Pressure: 29.88"   Gusts: NA
Location:  18.2°N, 120.59°E
Report Text: RPLI 220300Z 27004KT 9999 FEW018CB FEW019 31/26 Q1012 NOSIG RMK A2988 CB SW AND S
Loading
Personal Weather Stations






























Interactive Weather Map
Tropical Storm Tracking
New forecast layout! Learn more

10-Day Weather Forecast

Advertisements
Track Severe Weather on mobile